createdAt,value
2018-04-29T00:01:46.421Z,100399
2018-04-29T00:04:14.603Z,100385
2018-04-29T00:06:43.397Z,100392
2018-04-29T00:09:12.280Z,100390
2018-04-29T00:11:41.235Z,100390
2018-04-29T00:14:10.060Z,100378
2018-04-29T00:16:39.367Z,100388
2018-04-29T00:19:09.168Z,100387
2018-04-29T00:21:37.603Z,100383
2018-04-29T00:24:07.358Z,100388
2018-04-29T00:26:37.260Z,100383
2018-04-29T00:29:06.280Z,100379
2018-04-29T00:31:34.844Z,100378
2018-04-29T00:34:03.961Z,100374
2018-04-29T00:36:32.761Z,100379
2018-04-29T00:39:01.612Z,100363
2018-04-29T00:41:30.404Z,100370
2018-04-29T00:43:58.717Z,100370
2018-04-29T00:46:27.577Z,100366
2018-04-29T00:48:56.497Z,100358
2018-04-29T00:51:42.584Z,100352
2018-04-29T00:54:10.716Z,100359
2018-04-29T00:56:39.644Z,100370
2018-04-29T00:59:08.346Z,100376
2018-04-29T01:01:36.761Z,100372
2018-04-29T01:04:06.273Z,100364
2018-04-29T01:06:35.089Z,100354
2018-04-29T01:09:03.932Z,100355
2018-04-29T01:11:33.622Z,100349
2018-04-29T01:14:02.403Z,100353
2018-04-29T01:16:31.268Z,100353
2018-04-29T01:18:59.591Z,100336
2018-04-29T01:21:27.917Z,100341
2018-04-29T01:23:56.735Z,100324
2018-04-29T01:26:25.508Z,100313
2018-04-29T01:28:54.012Z,100330
2018-04-29T01:31:22.777Z,100335
2018-04-29T01:33:51.557Z,100325
2018-04-29T01:36:20.459Z,100330
2018-04-29T01:38:49.139Z,100338
2018-04-29T01:41:18.832Z,100331
2018-04-29T01:43:46.948Z,100330
2018-04-29T01:46:17.741Z,100339
2018-04-29T01:48:46.501Z,100342
2018-04-29T01:51:16.072Z,100340
2018-04-29T01:53:44.408Z,100336
2018-04-29T01:56:12.729Z,100332
2018-04-29T01:58:40.969Z,100322
2018-04-29T02:01:10.308Z,100330
2018-04-29T02:03:39.372Z,100319
2018-04-29T02:06:08.388Z,100324
2018-04-29T02:08:36.736Z,100308
2018-04-29T02:11:05.275Z,100311
2018-04-29T02:13:33.548Z,100311
2018-04-29T02:16:01.848Z,100307
2018-04-29T02:18:30.487Z,100303
2018-04-29T02:20:58.990Z,100299
2018-04-29T02:23:27.760Z,100299
2018-04-29T02:25:56.319Z,100300
2018-04-29T02:28:25.120Z,100283
2018-04-29T02:30:55.206Z,100282
2018-04-29T02:33:24.987Z,100269
2018-04-29T02:35:54.776Z,100273
2018-04-29T02:38:27.248Z,100278
2018-04-29T02:40:57.616Z,100282
2018-04-29T02:43:27.258Z,100277
2018-04-29T02:45:56.959Z,100219
2018-04-29T02:48:26.153Z,100274
2018-04-29T02:50:54.936Z,100281
2018-04-29T02:53:23.804Z,100290
2018-04-29T02:55:52.619Z,100280
2018-04-29T02:58:21.770Z,100283
2018-04-29T03:00:50.049Z,100282
2018-04-29T03:03:18.896Z,100272
2018-04-29T03:05:47.240Z,100281
2018-04-29T03:08:16.296Z,100279
2018-04-29T03:10:44.827Z,100286
2018-04-29T03:13:13.428Z,100278
2018-04-29T03:15:42.156Z,100274
2018-04-29T03:18:11.845Z,100273
2018-04-29T03:20:40.635Z,100267
2018-04-29T03:23:09.579Z,100253
2018-04-29T03:25:38.414Z,100247
2018-04-29T03:28:06.906Z,100245
2018-04-29T03:30:35.787Z,100235
2018-04-29T03:33:04.676Z,100231
2018-04-29T03:35:33.569Z,100223
2018-04-29T03:38:01.631Z,100216
2018-04-29T03:40:30.531Z,100219
2018-04-29T03:42:59.415Z,100229
2018-04-29T03:45:28.218Z,100230
2018-04-29T03:47:56.503Z,100238
2018-04-29T03:50:25.260Z,100236
2018-04-29T03:52:55.640Z,100238
2018-04-29T03:55:24.170Z,100241
2018-04-29T03:58:10.894Z,100227
2018-04-29T04:00:57.595Z,100231
2018-04-29T04:03:43.307Z,100220
2018-04-29T04:06:11.526Z,100230
2018-04-29T04:08:40.344Z,100232
2018-04-29T04:11:09.418Z,100221
2018-04-29T04:13:38.357Z,100226
2018-04-29T04:16:07.387Z,100221
2018-04-29T04:18:36.247Z,100215
2018-04-29T04:21:04.325Z,100224
2018-04-29T04:23:33.071Z,100222
2018-04-29T04:26:04.795Z,100228
2018-04-29T04:28:33.611Z,100213
2018-04-29T04:31:02.356Z,100220
2018-04-29T04:33:30.422Z,100219
2018-04-29T04:35:58.708Z,100232
2018-04-29T04:38:28.171Z,100233
2018-04-29T04:40:56.480Z,100222
2018-04-29T04:43:26.256Z,100230
2018-04-29T04:45:55.145Z,100215
2018-04-29T04:48:24.105Z,100210
2018-04-29T04:50:53.644Z,100220
2018-04-29T04:53:26.116Z,100215
2018-04-29T04:55:54.905Z,100236
2018-04-29T04:58:22.997Z,100223
2018-04-29T05:00:52.372Z,100230
2018-04-29T05:03:20.787Z,100231
2018-04-29T05:05:49.632Z,100223
2018-04-29T05:08:18.785Z,100223
2018-04-29T05:10:47.152Z,100243
2018-04-29T05:13:15.388Z,100234
2018-04-29T05:15:45.289Z,100256
2018-04-29T05:18:14.047Z,100265
2018-04-29T05:20:42.120Z,100263
2018-04-29T05:23:11.764Z,100266
2018-04-29T05:25:40.575Z,100254
2018-04-29T05:28:08.647Z,100258
2018-04-29T05:30:36.746Z,100246
2018-04-29T05:33:06.275Z,100235
2018-04-29T05:35:35.207Z,100225
2018-04-29T05:38:04.001Z,100227
2018-04-29T05:40:33.401Z,100216
2018-04-29T05:43:02.118Z,100213
2018-04-29T05:45:30.347Z,100200
2018-04-29T05:47:59.148Z,100198
2018-04-29T05:50:27.978Z,100208
2018-04-29T05:52:57.344Z,100189
2018-04-29T05:55:25.423Z,100178
2018-04-29T05:57:55.424Z,100160
2018-04-29T06:00:25.160Z,100172
2018-04-29T06:02:55.348Z,100168
2018-04-29T06:05:24.093Z,100161
2018-04-29T06:07:52.958Z,100174
2018-04-29T06:10:21.764Z,100191
2018-04-29T06:12:50.488Z,100179
2018-04-29T06:15:21.148Z,100161
2018-04-29T06:17:50.053Z,100168
2018-04-29T06:20:18.537Z,100169
2018-04-29T06:22:47.432Z,100171
2018-04-29T06:25:15.789Z,100144
2018-04-29T06:27:44.103Z,100139
2018-04-29T06:30:12.384Z,100135
2018-04-29T06:32:44.849Z,100112
2018-04-29T06:35:12.997Z,100108
2018-04-29T06:37:41.168Z,100127
2018-04-29T06:40:10.052Z,100124
2018-04-29T06:42:38.249Z,100132
2018-04-29T06:45:06.550Z,100134
2018-04-29T06:47:34.687Z,100125
2018-04-29T06:50:03.019Z,100143
2018-04-29T06:52:32.569Z,100144
2018-04-29T06:55:00.765Z,100160
2018-04-29T06:57:28.895Z,100174
2018-04-29T06:59:57.117Z,100200
2018-04-29T07:02:25.197Z,100212
2018-04-29T07:04:53.480Z,100211
2018-04-29T07:07:21.816Z,100213
2018-04-29T07:09:49.962Z,100223
2018-04-29T07:12:18.256Z,100207
2018-04-29T07:14:46.371Z,100190
2018-04-29T07:17:15.789Z,100185
2018-04-29T07:19:45.842Z,100192
2018-04-29T07:22:14.665Z,100189
2018-04-29T07:24:43.823Z,100208
2018-04-29T07:27:12.974Z,100216
2018-04-29T07:29:42.777Z,100205
2018-04-29T07:32:13.204Z,100192
2018-04-29T07:34:42.485Z,100147
2018-04-29T07:37:11.472Z,100160
2018-04-29T07:39:39.786Z,100170
2018-04-29T07:42:09.033Z,100160
2018-04-29T07:44:37.232Z,100158
2018-04-29T07:47:06.172Z,100151
2018-04-29T07:49:34.420Z,100141
2018-04-29T07:52:03.551Z,100149
2018-04-29T07:54:32.283Z,100148
2018-04-29T07:57:00.388Z,100151
2018-04-29T07:59:28.720Z,100147
2018-04-29T08:01:56.807Z,100133
2018-04-29T08:04:25.101Z,100124
2018-04-29T08:06:53.299Z,100137
2018-04-29T08:09:22.072Z,100139
2018-04-29T08:11:50.852Z,100149
2018-04-29T08:14:19.643Z,100138
2018-04-29T08:16:48.537Z,100116
2018-04-29T08:19:17.988Z,100095
2018-04-29T08:21:47.537Z,100104
2018-04-29T08:24:16.970Z,100124
2018-04-29T08:26:45.844Z,100123
2018-04-29T08:29:13.988Z,100121
2018-04-29T08:31:43.280Z,100124
2018-04-29T08:34:11.575Z,100122
2018-04-29T08:36:39.669Z,100132
2018-04-29T08:39:08.148Z,100133
2018-04-29T08:41:36.631Z,100146
2018-04-29T08:44:04.714Z,100175
2018-04-29T08:46:32.961Z,100193
2018-04-29T08:49:01.769Z,100172
2018-04-29T08:51:30.596Z,100166
2018-04-29T08:53:59.937Z,100145
2018-04-29T08:56:28.716Z,100122
2018-04-29T08:58:57.204Z,100126
2018-04-29T09:01:25.332Z,100115
2018-04-29T09:03:53.775Z,100141
2018-04-29T09:06:21.765Z,100142
2018-04-29T09:08:55.328Z,100131
2018-04-29T09:11:24.200Z,100135
2018-04-29T09:13:52.313Z,100129
2018-04-29T09:16:20.404Z,100125
2018-04-29T09:18:48.701Z,100097
2018-04-29T09:21:17.661Z,100088
2018-04-29T09:23:46.769Z,100083
2018-04-29T09:26:15.412Z,100058
2018-04-29T09:28:43.683Z,100066
2018-04-29T09:31:11.812Z,100058
2018-04-29T09:33:40.012Z,100042
2018-04-29T09:36:09.553Z,100053
2018-04-29T09:38:37.853Z,100061
2018-04-29T09:41:06.216Z,100056
2018-04-29T09:43:38.360Z,100043
2018-04-29T09:46:07.345Z,100053
2018-04-29T09:48:35.781Z,100058
2018-04-29T09:51:03.843Z,100060
2018-04-29T09:53:32.031Z,100059
2018-04-29T09:56:00.329Z,100050
2018-04-29T09:58:30.760Z,100048
2018-04-29T10:00:59.704Z,100043
2018-04-29T10:03:27.941Z,100036
2018-04-29T10:05:56.259Z,100038
2018-04-29T10:08:24.479Z,100017
2018-04-29T10:10:53.870Z,100022
2018-04-29T10:13:22.245Z,100000
2018-04-29T10:15:51.274Z,99993
2018-04-29T10:18:19.644Z,100003
2018-04-29T10:20:47.747Z,99987
2018-04-29T10:23:17.604Z,99987
2018-04-29T10:25:46.456Z,99973
2018-04-29T10:28:15.180Z,99977
2018-04-29T10:30:45.066Z,99985
2018-04-29T10:33:13.756Z,99968
2018-04-29T10:35:42.108Z,99967
2018-04-29T10:38:10.208Z,99955
2018-04-29T10:40:38.303Z,99958
2018-04-29T10:43:06.387Z,99945
2018-04-29T10:45:34.451Z,99928
2018-04-29T10:48:03.530Z,99923
2018-04-29T10:50:31.614Z,99928
2018-04-29T10:52:59.708Z,99924
2018-04-29T10:55:27.811Z,99917
2018-04-29T10:57:55.864Z,99914
2018-04-29T11:00:23.943Z,99914
2018-04-29T11:02:52.046Z,99926
2018-04-29T11:05:20.135Z,99923
2018-04-29T11:10:27.450Z,99928
2018-04-29T11:12:55.521Z,99909
2018-04-29T11:15:24.000Z,99912
2018-04-29T11:17:52.097Z,99902
2018-04-29T11:20:20.177Z,99900
2018-04-29T11:22:48.281Z,99903
2018-04-29T11:25:17.335Z,99922
2018-04-29T11:27:45.446Z,99923
2018-04-29T11:30:20.781Z,99919
2018-04-29T11:32:50.559Z,99910
2018-04-29T11:35:20.300Z,99908
2018-04-29T11:37:49.065Z,99903
2018-04-29T11:40:18.809Z,99903
2018-04-29T11:42:47.632Z,99894
2018-04-29T11:45:16.507Z,99890
2018-04-29T11:47:45.314Z,99888
2018-04-29T11:50:16.817Z,99869
2018-04-29T11:52:45.239Z,99859
2018-04-29T11:55:13.695Z,99858
2018-04-29T11:57:42.827Z,99866
2018-04-29T12:00:12.039Z,99854
2018-04-29T12:02:42.225Z,99878
2018-04-29T12:05:11.161Z,99864
2018-04-29T12:07:40.279Z,99869
2018-04-29T12:10:09.385Z,99874
2018-04-29T12:12:38.847Z,99866
2018-04-29T12:15:07.748Z,99869
2018-04-29T12:17:36.081Z,99868
2018-04-29T12:20:05.818Z,99861
2018-04-29T12:22:35.532Z,99858
2018-04-29T12:25:05.521Z,99843
2018-04-29T12:27:35.052Z,99840
2018-04-29T12:30:04.072Z,99841
2018-04-29T12:32:33.297Z,99830
2018-04-29T12:35:01.461Z,99817
2018-04-29T12:37:31.588Z,99817
2018-04-29T12:40:01.112Z,99818
2018-04-29T12:42:29.581Z,99807
2018-04-29T12:45:02.964Z,99799
2018-04-29T12:47:31.873Z,99785
2018-04-29T12:50:02.307Z,99787
2018-04-29T12:52:30.685Z,99779
2018-04-29T12:54:59.983Z,99773
2018-04-29T12:57:29.206Z,99780
2018-04-29T12:59:59.170Z,99769
2018-04-29T13:02:27.330Z,99759
2018-04-29T13:04:55.511Z,99755
2018-04-29T13:07:27.980Z,99743
2018-04-29T13:09:56.299Z,99738
2018-04-29T13:12:26.016Z,99739
2018-04-29T13:14:58.463Z,99733
2018-04-29T13:17:27.028Z,99723
2018-04-29T13:19:56.050Z,99707
2018-04-29T13:22:24.514Z,99713
2018-04-29T13:24:52.762Z,99705
2018-04-29T13:27:21.759Z,99700
2018-04-29T13:29:50.788Z,99699
2018-04-29T13:32:18.967Z,99697
2018-04-29T13:34:47.761Z,99697
2018-04-29T13:37:17.588Z,99685
2018-04-29T13:39:47.396Z,99689
2018-04-29T13:42:17.113Z,99682
2018-04-29T13:44:45.987Z,99689
2018-04-29T13:47:15.684Z,99685
2018-04-29T13:49:44.139Z,99675
2018-04-29T13:52:14.165Z,99680
2018-04-29T13:54:42.274Z,99684
2018-04-29T13:57:12.056Z,99675
2018-04-29T13:59:40.855Z,99672
2018-04-29T14:02:11.508Z,99669
2018-04-29T14:04:39.680Z,99662
2018-04-29T14:07:08.015Z,99669
2018-04-29T14:09:36.869Z,99666
2018-04-29T14:12:05.652Z,99666
2018-04-29T14:14:34.440Z,99663
2018-04-29T14:17:03.616Z,99656
2018-04-29T14:19:31.692Z,99653
2018-04-29T14:22:00.052Z,99657
2018-04-29T14:24:28.860Z,99659
2018-04-29T14:26:57.345Z,99667
2018-04-29T14:29:27.044Z,99671
2018-04-29T14:31:55.419Z,99664
2018-04-29T14:34:24.209Z,99663
2018-04-29T14:36:53.099Z,99676
2018-04-29T14:39:21.440Z,99668
2018-04-29T14:41:49.695Z,99663
2018-04-29T14:44:17.940Z,99657
2018-04-29T14:46:46.733Z,99659
2018-04-29T14:49:15.816Z,99658
2018-04-29T14:51:44.138Z,99654
2018-04-29T14:54:12.304Z,99662
2018-04-29T14:56:41.148Z,99670
2018-04-29T14:59:09.436Z,99679
2018-04-29T15:01:37.751Z,99678
2018-04-29T15:04:05.832Z,99673
2018-04-29T15:06:35.071Z,99680
2018-04-29T15:09:03.995Z,99683
2018-04-29T15:11:32.352Z,99685
2018-04-29T15:14:01.656Z,99682
2018-04-29T15:16:30.829Z,99676
2018-04-29T15:18:59.876Z,99677
2018-04-29T15:21:28.005Z,99662
2018-04-29T15:23:56.292Z,99659
2018-04-29T15:26:24.551Z,99646
2018-04-29T15:28:52.956Z,99628
2018-04-29T15:31:21.831Z,99624
2018-04-29T15:33:49.951Z,99622
2018-04-29T15:36:18.088Z,99629
2018-04-29T15:38:47.184Z,99610
2018-04-29T15:41:17.024Z,99626
2018-04-29T15:43:45.643Z,99618
2018-04-29T15:46:14.813Z,99602
2018-04-29T15:48:42.908Z,99610
2018-04-29T15:51:11.005Z,99609
2018-04-29T15:53:39.322Z,99611
2018-04-29T15:56:07.617Z,99597
2018-04-29T15:58:35.717Z,99602
2018-04-29T16:01:04.569Z,99594
2018-04-29T16:03:32.754Z,99601
2018-04-29T16:06:01.561Z,99608
2018-04-29T16:08:34.096Z,99608
2018-04-29T16:11:03.573Z,99601
2018-04-29T16:13:31.681Z,99598
2018-04-29T16:16:00.523Z,99588
2018-04-29T16:18:28.588Z,99584
2018-04-29T16:20:56.736Z,99576
2018-04-29T16:23:24.843Z,99566
2018-04-29T16:25:52.927Z,99562
2018-04-29T16:28:21.010Z,99552
2018-04-29T16:30:49.091Z,99548
2018-04-29T16:33:18.493Z,99556
2018-04-29T16:35:46.592Z,99566
2018-04-29T16:38:14.792Z,99563
2018-04-29T16:40:42.811Z,99543
2018-04-29T16:43:11.604Z,99547
2018-04-29T16:45:40.596Z,99555
2018-04-29T16:48:08.701Z,99537
2018-04-29T16:50:36.790Z,99546
2018-04-29T16:53:04.913Z,99537
2018-04-29T16:55:33.051Z,99535
2018-04-29T16:58:01.341Z,99535
2018-04-29T17:00:29.411Z,99537
2018-04-29T17:02:57.535Z,99514
2018-04-29T17:05:25.601Z,99516
2018-04-29T17:07:53.713Z,99509
2018-04-29T17:10:22.547Z,99503
2018-04-29T17:12:50.899Z,99495
2018-04-29T17:15:18.975Z,99497
2018-04-29T17:17:47.591Z,99491
2018-04-29T17:20:15.684Z,99486
2018-04-29T17:22:44.821Z,99492
2018-04-29T17:25:12.904Z,99485
2018-04-29T17:27:40.969Z,99481
2018-04-29T17:30:09.173Z,99465
2018-04-29T17:32:37.467Z,99466
2018-04-29T17:35:05.578Z,99458
2018-04-29T17:37:33.678Z,99458
2018-04-29T17:40:02.001Z,99452
2018-04-29T17:42:30.092Z,99454
2018-04-29T17:44:58.188Z,99443
2018-04-29T17:47:26.295Z,99442
2018-04-29T17:49:54.365Z,99440
2018-04-29T17:52:22.648Z,99433
2018-04-29T17:54:50.817Z,99428
2018-04-29T17:57:19.543Z,99423
2018-04-29T17:59:48.142Z,99429
2018-04-29T18:02:16.281Z,99425
2018-04-29T18:04:45.357Z,99419
2018-04-29T18:07:15.228Z,99411
2018-04-29T18:09:44.227Z,99401
2018-04-29T18:12:12.401Z,99396
2018-04-29T18:14:45.463Z,99403
2018-04-29T18:17:15.931Z,99403
2018-04-29T18:19:44.253Z,99391
2018-04-29T18:22:12.921Z,99402
2018-04-29T18:24:41.020Z,99395
2018-04-29T18:27:09.885Z,99387
2018-04-29T18:29:38.026Z,99388
2018-04-29T18:32:06.100Z,99387
2018-04-29T18:34:34.207Z,99381
2018-04-29T18:37:02.285Z,99390
2018-04-29T18:39:30.404Z,99394
2018-04-29T18:41:59.663Z,99389
2018-04-29T18:44:31.483Z,99392
2018-04-29T18:47:01.995Z,99398
2018-04-29T18:49:30.914Z,99387
2018-04-29T18:51:59.005Z,99385
2018-04-29T18:54:27.324Z,99375
2018-04-29T18:56:55.416Z,99371
2018-04-29T18:59:23.560Z,99379
2018-04-29T19:01:53.521Z,99381
2018-04-29T19:04:21.633Z,99369
2018-04-29T19:06:50.718Z,99368
2018-04-29T19:09:19.053Z,99360
2018-04-29T19:11:47.347Z,99370
2018-04-29T19:14:16.143Z,99372
2018-04-29T19:16:44.359Z,99371
2018-04-29T19:19:12.471Z,99367
2018-04-29T19:21:40.545Z,99365
2018-04-29T19:24:08.742Z,99361
2018-04-29T19:26:36.696Z,99359
2018-04-29T19:29:04.783Z,99356
2018-04-29T19:31:32.983Z,99355
2018-04-29T19:34:01.235Z,99353
2018-04-29T19:36:29.331Z,99337
2018-04-29T19:38:59.082Z,99335
2018-04-29T19:41:27.420Z,99323
2018-04-29T19:43:56.328Z,99318
2018-04-29T19:46:24.376Z,99295
2018-04-29T19:48:52.456Z,99290
2018-04-29T19:51:21.310Z,99280
2018-04-29T19:53:49.400Z,99266
2018-04-29T19:56:18.216Z,99258
2018-04-29T19:58:47.070Z,99245
2018-04-29T20:01:15.168Z,99235
2018-04-29T20:03:43.259Z,99234
2018-04-29T20:06:11.558Z,99232
2018-04-29T20:08:40.393Z,99212
2018-04-29T20:11:08.496Z,99219
2018-04-29T20:13:38.536Z,99211
2018-04-29T20:16:06.618Z,99209
2018-04-29T20:18:34.791Z,99205
2018-04-29T20:21:02.824Z,99188
2018-04-29T20:23:31.655Z,99185
2018-04-29T20:25:59.736Z,99176
2018-04-29T20:28:27.808Z,99174
2018-04-29T20:30:55.884Z,99171
2018-04-29T20:33:23.955Z,99173
2018-04-29T20:35:52.044Z,99169
2018-04-29T20:38:20.342Z,99171
2018-04-29T20:40:49.212Z,99156
2018-04-29T20:43:18.976Z,99150
2018-04-29T20:45:47.041Z,99128
2018-04-29T20:48:15.159Z,99128
2018-04-29T20:50:43.239Z,99129
2018-04-29T20:53:11.341Z,99116
2018-04-29T20:55:40.381Z,99100
2018-04-29T20:58:08.444Z,99091
2018-04-29T21:00:36.599Z,99081
2018-04-29T21:03:04.640Z,99079
2018-04-29T21:05:32.739Z,99071
2018-04-29T21:08:01.853Z,99051
2018-04-29T21:10:29.832Z,99056
2018-04-29T21:12:57.922Z,99031
2018-04-29T21:15:25.996Z,99036
2018-04-29T21:17:54.075Z,99020
2018-04-29T21:20:22.159Z,99010
2018-04-29T21:22:50.261Z,98997
2018-04-29T21:25:18.337Z,98996
2018-04-29T21:27:46.425Z,98985
2018-04-29T21:30:14.494Z,98971
2018-04-29T21:32:42.609Z,98976
2018-04-29T21:35:11.387Z,98970
2018-04-29T21:37:39.530Z,98968
2018-04-29T21:40:07.656Z,98958
2018-04-29T21:42:35.872Z,98951
2018-04-29T21:45:04.143Z,98945
2018-04-29T21:47:32.235Z,98943
2018-04-29T21:50:00.359Z,98945
2018-04-29T21:52:29.248Z,98941
2018-04-29T21:54:57.333Z,98932
2018-04-29T21:57:26.171Z,98930
2018-04-29T21:59:54.449Z,98929
2018-04-29T22:02:23.847Z,98915
2018-04-29T22:04:51.930Z,98903
2018-04-29T22:07:20.230Z,98915
2018-04-29T22:09:48.320Z,98914
2018-04-29T22:12:16.417Z,98893
2018-04-29T22:14:44.732Z,98903
2018-04-29T22:17:13.513Z,98915
2018-04-29T22:19:41.812Z,98960
2018-04-29T22:22:09.875Z,98994
2018-04-29T22:24:38.360Z,99002
2018-04-29T22:27:07.315Z,98981
2018-04-29T22:29:35.455Z,98938
2018-04-29T22:32:04.293Z,98934
2018-04-29T22:34:32.384Z,98983
2018-04-29T22:37:00.549Z,99094
2018-04-29T22:39:29.568Z,99171
2018-04-29T22:41:57.655Z,99164
2018-04-29T22:44:25.919Z,99125
2018-04-29T22:46:54.053Z,99118
2018-04-29T22:49:22.354Z,99128
2018-04-29T22:51:51.144Z,99102
2018-04-29T22:54:19.920Z,99090
2018-04-29T22:56:47.991Z,99090
2018-04-29T22:59:16.191Z,99093
2018-04-29T23:01:44.264Z,99088
2018-04-29T23:04:13.124Z,99067
2018-04-29T23:06:41.931Z,99073
2018-04-29T23:09:11.285Z,99081
2018-04-29T23:11:39.544Z,99068
2018-04-29T23:14:08.447Z,99058
2018-04-29T23:16:36.634Z,99070
2018-04-29T23:19:04.912Z,99076
2018-04-29T23:21:33.225Z,99083
2018-04-29T23:24:01.307Z,99078
2018-04-29T23:26:29.601Z,99078
2018-04-29T23:28:57.663Z,99087
2018-04-29T23:31:26.552Z,99089
2018-04-29T23:33:54.978Z,99072
2018-04-29T23:36:23.776Z,99074
2018-04-29T23:38:52.578Z,99079
2018-04-29T23:41:20.900Z,99129
2018-04-29T23:43:49.015Z,99134
2018-04-29T23:46:17.776Z,99092
2018-04-29T23:48:46.587Z,99072
2018-04-29T23:51:15.537Z,99072
2018-04-29T23:53:44.375Z,99069
2018-04-29T23:56:12.680Z,99054
2018-04-29T23:58:40.767Z,99031
